sensor_id;sensor_type;location;lat;lon;timestamp;pressure;altitude;pressure_sealevel;temperature;humidity
64115;BME280;62188;35.640;139.748;2023-04-07T00:01:16;101239.90;;;20.51;47.31
64115;BME280;62188;35.640;139.748;2023-04-07T00:03:42;101226.93;;;20.17;47.63
64115;BME280;62188;35.640;139.748;2023-04-07T00:06:07;101216.86;;;20.14;48.10
64115;BME280;62188;35.640;139.748;2023-04-07T00:08:33;101211.28;;;19.72;48.49
64115;BME280;62188;35.640;139.748;2023-04-07T00:10:58;101205.14;;;20.12;48.25
64115;BME280;62188;35.640;139.748;2023-04-07T00:13:24;101219.23;;;19.66;48.89
64115;BME280;62188;35.640;139.748;2023-04-07T00:15:49;101189.18;;;20.16;48.37
64115;BME280;62188;35.640;139.748;2023-04-07T00:18:14;101216.09;;;20.25;48.32
64115;BME280;62188;35.640;139.748;2023-04-07T00:20:40;101190.26;;;20.17;47.79
64115;BME280;62188;35.640;139.748;2023-04-07T00:23:05;101210.28;;;20.58;47.51
64115;BME280;62188;35.640;139.748;2023-04-07T00:25:30;101205.41;;;20.34;47.67
64115;BME280;62188;35.640;139.748;2023-04-07T00:27:56;101205.58;;;19.98;47.46
64115;BME280;62188;35.640;139.748;2023-04-07T00:30:21;101195.51;;;20.02;47.09
64115;BME280;62188;35.640;139.748;2023-04-07T00:32:47;101215.94;;;20.33;46.83
64115;BME280;62188;35.640;139.748;2023-04-07T00:35:12;101191.48;;;20.64;46.38
64115;BME280;62188;35.640;139.748;2023-04-07T00:37:38;101190.24;;;20.49;45.57
64115;BME280;62188;35.640;139.748;2023-04-07T00:40:04;101175.51;;;20.66;45.52
64115;BME280;62188;35.640;139.748;2023-04-07T00:42:29;101181.15;;;20.30;45.86
64115;BME280;62188;35.640;139.748;2023-04-07T00:44:55;101175.16;;;20.48;45.98
64115;BME280;62188;35.640;139.748;2023-04-07T00:47:22;101206.94;;;20.03;45.87
64115;BME280;62188;35.640;139.748;2023-04-07T00:49:45;101186.48;;;20.04;46.05
64115;BME280;62188;35.640;139.748;2023-04-07T00:52:12;101202.96;;;20.31;46.09
64115;BME280;62188;35.640;139.748;2023-04-07T00:54:37;101203.26;;;20.00;46.78
64115;BME280;62188;35.640;139.748;2023-04-07T00:57:02;101198.23;;;20.48;47.20
64115;BME280;62188;35.640;139.748;2023-04-07T00:59:27;101179.11;;;19.51;48.67
64115;BME280;62188;35.640;139.748;2023-04-07T01:01:59;101188.05;;;19.98;49.24
64115;BME280;62188;35.640;139.748;2023-04-07T01:04:25;101182.03;;;19.57;50.63
64115;BME280;62188;35.640;139.748;2023-04-07T01:06:49;101174.82;;;19.04;51.46
64115;BME280;62188;35.640;139.748;2023-04-07T01:09:13;101167.37;;;19.59;51.28
64115;BME280;62188;35.640;139.748;2023-04-07T01:11:41;101156.56;;;19.66;51.39
64115;BME280;62188;35.640;139.748;2023-04-07T01:14:00;101144.80;;;19.45;50.88
64115;BME280;62188;35.640;139.748;2023-04-07T01:16:29;101131.57;;;19.92;50.75
64115;BME280;62188;35.640;139.748;2023-04-07T01:18:54;101126.70;;;19.69;50.76
64115;BME280;62188;35.640;139.748;2023-04-07T01:21:18;101132.36;;;19.75;50.45
64115;BME280;62188;35.640;139.748;2023-04-07T01:23:51;101121.83;;;19.67;50.45
64115;BME280;62188;35.640;139.748;2023-04-07T01:26:17;101107.86;;;19.86;50.50
64115;BME280;62188;35.640;139.748;2023-04-07T01:28:46;101120.49;;;19.82;50.09
64115;BME280;62188;35.640;139.748;2023-04-07T01:30:59;101097.03;;;19.60;50.22
64115;BME280;62188;35.640;139.748;2023-04-07T01:33:25;101091.66;;;19.91;49.79
64115;BME280;62188;35.640;139.748;2023-04-07T01:35:50;101081.91;;;20.27;49.18
64115;BME280;62188;35.640;139.748;2023-04-07T01:38:14;101091.11;;;20.40;48.76
64115;BME280;62188;35.640;139.748;2023-04-07T01:40:40;101090.66;;;20.34;48.59
64115;BME280;62188;35.640;139.748;2023-04-07T01:43:06;101080.18;;;20.52;48.36
64115;BME280;62188;35.640;139.748;2023-04-07T01:45:33;101083.85;;;20.07;48.41
64115;BME280;62188;35.640;139.748;2023-04-07T01:47:57;101079.09;;;20.18;48.42
64115;BME280;62188;35.640;139.748;2023-04-07T01:50:23;101082.90;;;20.08;48.19
64115;BME280;62188;35.640;139.748;2023-04-07T01:52:47;101088.65;;;20.26;48.28
64115;BME280;62188;35.640;139.748;2023-04-07T01:55:14;101093.90;;;19.94;48.47
64115;BME280;62188;35.640;139.748;2023-04-07T01:57:38;101075.45;;;20.05;48.82
64115;BME280;62188;35.640;139.748;2023-04-07T02:00:05;101091.05;;;20.01;48.63
64115;BME280;62188;35.640;139.748;2023-04-07T02:02:30;101090.13;;;19.86;48.43
64115;BME280;62188;35.640;139.748;2023-04-07T02:04:57;101095.66;;;20.05;48.20
64115;BME280;62188;35.640;139.748;2023-04-07T02:07:26;101117.41;;;19.62;48.47
64115;BME280;62188;35.640;139.748;2023-04-07T02:09:48;101106.26;;;19.94;48.68
64115;BME280;62188;35.640;139.748;2023-04-07T02:12:14;101111.64;;;19.93;48.75
64115;BME280;62188;35.640;139.748;2023-04-07T02:14:38;101115.83;;;20.35;48.81
64115;BME280;62188;35.640;139.748;2023-04-07T02:17:04;101100.01;;;19.90;49.37
64115;BME280;62188;35.640;139.748;2023-04-07T02:19:29;101099.88;;;20.17;49.36
64115;BME280;62188;35.640;139.748;2023-04-07T02:21:54;101110.49;;;19.97;49.31
64115;BME280;62188;35.640;139.748;2023-04-07T02:24:20;101116.14;;;20.61;49.31
64115;BME280;62188;35.640;139.748;2023-04-07T02:26:45;101110.93;;;20.26;49.61
64115;BME280;62188;35.640;139.748;2023-04-07T02:29:10;101109.34;;;20.34;49.69
64115;BME280;62188;35.640;139.748;2023-04-07T02:31:36;101107.04;;;20.02;50.04
64115;BME280;62188;35.640;139.748;2023-04-07T02:34:02;101096.94;;;20.20;49.98
64115;BME280;62188;35.640;139.748;2023-04-07T02:36:27;101083.50;;;20.01;49.85
64115;BME280;62188;35.640;139.748;2023-04-07T02:38:53;101069.45;;;20.41;49.22
64115;BME280;62188;35.640;139.748;2023-04-07T02:41:18;101066.50;;;20.70;49.30
64115;BME280;62188;35.640;139.748;2023-04-07T02:43:43;101059.02;;;20.08;49.41
64115;BME280;62188;35.640;139.748;2023-04-07T02:46:09;101046.85;;;20.28;48.93
64115;BME280;62188;35.640;139.748;2023-04-07T02:48:35;101051.79;;;19.98;48.75
64115;BME280;62188;35.640;139.748;2023-04-07T02:51:00;101036.36;;;20.40;48.13
64115;BME280;62188;35.640;139.748;2023-04-07T02:53:25;101037.37;;;20.82;47.51
64115;BME280;62188;35.640;139.748;2023-04-07T02:55:50;101032.16;;;20.72;47.42
64115;BME280;62188;35.640;139.748;2023-04-07T02:58:16;101026.60;;;20.74;46.44
64115;BME280;62188;35.640;139.748;2023-04-07T03:00:42;101027.96;;;20.66;45.75
64115;BME280;62188;35.640;139.748;2023-04-07T03:03:08;101026.29;;;21.07;45.42
64115;BME280;62188;35.640;139.748;2023-04-07T03:05:34;101021.00;;;20.36;45.65
64115;BME280;62188;35.640;139.748;2023-04-07T03:07:59;101026.21;;;20.16;45.59
64115;BME280;62188;35.640;139.748;2023-04-07T03:10:25;101008.67;;;20.59;45.27
64115;BME280;62188;35.640;139.748;2023-04-07T03:12:50;101002.75;;;20.39;44.57
64115;BME280;62188;35.640;139.748;2023-04-07T03:15:15;101001.04;;;20.65;44.49
64115;BME280;62188;35.640;139.748;2023-04-07T03:17:40;101013.48;;;20.58;44.02
64115;BME280;62188;35.640;139.748;2023-04-07T03:20:07;101008.65;;;20.21;44.29
64115;BME280;62188;35.640;139.748;2023-04-07T03:22:32;101014.01;;;20.54;44.23
64115;BME280;62188;35.640;139.748;2023-04-07T03:24:57;101016.69;;;20.20;44.72
64115;BME280;62188;35.640;139.748;2023-04-07T03:27:23;101003.07;;;20.37;44.58
64115;BME280;62188;35.640;139.748;2023-04-07T03:29:48;101008.99;;;20.47;44.46
64115;BME280;62188;35.640;139.748;2023-04-07T03:32:14;101003.25;;;20.33;44.47
64115;BME280;62188;35.640;139.748;2023-04-07T03:34:39;100993.52;;;20.53;44.30
64115;BME280;62188;35.640;139.748;2023-04-07T03:37:04;101007.42;;;20.87;44.28
64115;BME280;62188;35.640;139.748;2023-04-07T03:39:29;100992.84;;;20.42;44.24
64115;BME280;62188;35.640;139.748;2023-04-07T03:41:54;101001.04;;;20.55;44.10
64115;BME280;62188;35.640;139.748;2023-04-07T03:44:20;100982.25;;;20.24;44.82
64115;BME280;62188;35.640;139.748;2023-04-07T03:46:45;100976.94;;;20.56;44.76
64115;BME280;62188;35.640;139.748;2023-04-07T03:49:11;100971.39;;;20.78;44.14
64115;BME280;62188;35.640;139.748;2023-04-07T03:51:36;100969.81;;;20.68;44.08
64115;BME280;62188;35.640;139.748;2023-04-07T03:54:01;100973.08;;;20.77;43.89
64115;BME280;62188;35.640;139.748;2023-04-07T03:56:27;100956.37;;;20.94;43.78
64115;BME280;62188;35.640;139.748;2023-04-07T03:58:52;100950.28;;;20.86;43.70
64115;BME280;62188;35.640;139.748;2023-04-07T04:01:18;100960.47;;;20.90;43.74
64115;BME280;62188;35.640;139.748;2023-04-07T04:03:43;100969.36;;;20.89;43.88
64115;BME280;62188;35.640;139.748;2023-04-07T04:06:09;100937.27;;;20.38;44.27
64115;BME280;62188;35.640;139.748;2023-04-07T04:08:34;100951.86;;;20.67;44.33
64115;BME280;62188;35.640;139.748;2023-04-07T04:11:00;100951.17;;;20.58;45.02
64115;BME280;62188;35.640;139.748;2023-04-07T04:13:25;100922.79;;;20.43;45.07
64115;BME280;62188;35.640;139.748;2023-04-07T04:15:51;100934.55;;;20.78;45.25
64115;BME280;62188;35.640;139.748;2023-04-07T04:18:17;100938.72;;;19.94;45.89
64115;BME280;62188;35.640;139.748;2023-04-07T04:20:43;100917.94;;;20.02;45.88
64115;BME280;62188;35.640;139.748;2023-04-07T04:23:08;100903.41;;;20.07;45.90
64115;BME280;62188;35.640;139.748;2023-04-07T04:25:33;100897.04;;;20.41;45.83
64115;BME280;62188;35.640;139.748;2023-04-07T04:27:58;100889.20;;;20.77;45.43
64115;BME280;62188;35.640;139.748;2023-04-07T04:30:24;100892.27;;;20.60;45.84
64115;BME280;62188;35.640;139.748;2023-04-07T04:32:49;100901.16;;;20.32;46.53
64115;BME280;62188;35.640;139.748;2023-04-07T04:35:14;100867.37;;;20.37;46.56
64115;BME280;62188;35.640;139.748;2023-04-07T04:37:40;100855.50;;;20.28;46.46
64115;BME280;62188;35.640;139.748;2023-04-07T04:40:07;100861.91;;;20.55;46.22
64115;BME280;62188;35.640;139.748;2023-04-07T04:42:31;100875.58;;;20.02;47.25
64115;BME280;62188;35.640;139.748;2023-04-07T04:44:57;100861.77;;;20.52;47.15
64115;BME280;62188;35.640;139.748;2023-04-07T04:47:22;100873.72;;;20.44;47.18
64115;BME280;62188;35.640;139.748;2023-04-07T04:49:47;100872.17;;;20.81;46.85
64115;BME280;62188;35.640;139.748;2023-04-07T04:52:13;100850.92;;;20.61;47.58
64115;BME280;62188;35.640;139.748;2023-04-07T04:54:39;100851.74;;;20.52;48.04
64115;BME280;62188;35.640;139.748;2023-04-07T04:57:04;100833.45;;;20.68;47.48
64115;BME280;62188;35.640;139.748;2023-04-07T04:59:29;100841.78;;;21.11;47.14
64115;BME280;62188;35.640;139.748;2023-04-07T05:01:54;100832.69;;;21.36;46.86
64115;BME280;62188;35.640;139.748;2023-04-07T05:04:21;100837.40;;;21.76;46.05
64115;BME280;62188;35.640;139.748;2023-04-07T05:06:45;100832.63;;;21.52;45.73
64115;BME280;62188;35.640;139.748;2023-04-07T05:09:11;100831.71;;;21.43;45.50
64115;BME280;62188;35.640;139.748;2023-04-07T05:11:36;100819.86;;;21.71;45.54
64115;BME280;62188;35.640;139.748;2023-04-07T05:14:01;100825.61;;;21.63;45.26
64115;BME280;62188;35.640;139.748;2023-04-07T05:16:27;100826.10;;;21.45;45.63
64115;BME280;62188;35.640;139.748;2023-04-07T05:18:52;100812.66;;;21.13;45.94
64115;BME280;62188;35.640;139.748;2023-04-07T05:21:18;100809.75;;;21.56;45.79
64115;BME280;62188;35.640;139.748;2023-04-07T05:23:43;100808.82;;;21.32;45.45
64115;BME280;62188;35.640;139.748;2023-04-07T05:26:09;100809.11;;;20.99;46.06
64115;BME280;62188;35.640;139.748;2023-04-07T05:28:34;100799.00;;;21.47;45.89
64115;BME280;62188;35.640;139.748;2023-04-07T05:31:00;100802.88;;;21.24;45.61
64115;BME280;62188;35.640;139.748;2023-04-07T05:33:25;100789.34;;;21.54;45.91
64115;BME280;62188;35.640;139.748;2023-04-07T05:35:55;100792.48;;;20.85;46.25
64115;BME280;62188;35.640;139.748;2023-04-07T05:38:15;100776.28;;;21.15;46.44
64115;BME280;62188;35.640;139.748;2023-04-07T05:40:41;100794.39;;;21.03;46.20
64115;BME280;62188;35.640;139.748;2023-04-07T05:43:06;100798.55;;;21.02;46.42
64115;BME280;62188;35.640;139.748;2023-04-07T05:45:31;100781.77;;;20.89;46.62
64115;BME280;62188;35.640;139.748;2023-04-07T05:47:57;100785.29;;;20.98;46.27
64115;BME280;62188;35.640;139.748;2023-04-07T05:50:22;100795.43;;;21.14;46.14
64115;BME280;62188;35.640;139.748;2023-04-07T05:52:48;100783.68;;;21.15;46.02
64115;BME280;62188;35.640;139.748;2023-04-07T05:55:13;100784.97;;;21.23;46.29
64115;BME280;62188;35.640;139.748;2023-04-07T05:57:39;100767.77;;;21.15;46.07
64115;BME280;62188;35.640;139.748;2023-04-07T06:00:05;100772.32;;;20.53;46.11
64115;BME280;62188;35.640;139.748;2023-04-07T06:02:29;100772.73;;;21.04;45.96
64115;BME280;62188;35.640;139.748;2023-04-07T06:04:55;100760.76;;;21.31;45.81
64115;BME280;62188;35.640;139.748;2023-04-07T06:07:21;100754.07;;;21.18;46.06
64115;BME280;62188;35.640;139.748;2023-04-07T06:09:47;100752.80;;;21.21;46.36
64115;BME280;62188;35.640;139.748;2023-04-07T06:12:12;100755.75;;;20.95;46.77
64115;BME280;62188;35.640;139.748;2023-04-07T06:14:39;100749.98;;;21.16;46.89
64115;BME280;62188;35.640;139.748;2023-04-07T06:17:03;100740.84;;;21.15;47.80
64115;BME280;62188;35.640;139.748;2023-04-07T06:19:29;100734.61;;;20.76;47.89
64115;BME280;62188;35.640;139.748;2023-04-07T06:21:55;100741.21;;;20.88;48.29
64115;BME280;62188;35.640;139.748;2023-04-07T06:24:20;100733.76;;;21.03;48.55
64115;BME280;62188;35.640;139.748;2023-04-07T06:26:45;100728.24;;;20.67;48.78
64115;BME280;62188;35.640;139.748;2023-04-07T06:29:11;100724.69;;;20.46;49.30
64115;BME280;62188;35.640;139.748;2023-04-07T06:31:38;100725.41;;;20.51;49.37
64115;BME280;62188;35.640;139.748;2023-04-07T06:34:02;100724.87;;;20.59;49.51
64115;BME280;62188;35.640;139.748;2023-04-07T06:36:28;100717.86;;;20.62;49.53
64115;BME280;62188;35.640;139.748;2023-04-07T06:38:54;100711.57;;;20.71;48.83
64115;BME280;62188;35.640;139.748;2023-04-07T06:41:19;100711.07;;;20.98;48.90
64115;BME280;62188;35.640;139.748;2023-04-07T06:43:47;100720.03;;;20.85;49.30
64115;BME280;62188;35.640;139.748;2023-04-07T06:46:10;100709.81;;;20.95;49.16
64115;BME280;62188;35.640;139.748;2023-04-07T06:48:35;100723.19;;;20.96;49.02
64115;BME280;62188;35.640;139.748;2023-04-07T06:51:01;100723.00;;;21.03;48.77
64115;BME280;62188;35.640;139.748;2023-04-07T06:53:26;100715.56;;;20.79;48.46
64115;BME280;62188;35.640;139.748;2023-04-07T06:58:17;100699.56;;;20.41;48.65
64115;BME280;62188;35.640;139.748;2023-04-07T07:00:43;100693.89;;;20.58;49.07
64115;BME280;62188;35.640;139.748;2023-04-07T07:05:34;100679.34;;;20.63;49.70
64115;BME280;62188;35.640;139.748;2023-04-07T07:08:00;100681.85;;;20.78;50.13
64115;BME280;62188;35.640;139.748;2023-04-07T07:10:25;100672.23;;;20.50;50.42
64115;BME280;62188;35.640;139.748;2023-04-07T07:12:51;100690.68;;;20.40;50.65
64115;BME280;62188;35.640;139.748;2023-04-07T07:15:16;100679.70;;;20.34;51.07
64115;BME280;62188;35.640;139.748;2023-04-07T07:17:41;100674.99;;;20.12;50.74
64115;BME280;62188;35.640;139.748;2023-04-07T07:20:07;100666.75;;;20.37;50.33
64115;BME280;62188;35.640;139.748;2023-04-07T07:22:47;100675.61;;;20.46;50.20
64115;BME280;62188;35.640;139.748;2023-04-07T07:24:57;100679.90;;;20.45;50.62
64115;BME280;62188;35.640;139.748;2023-04-07T07:27:24;100664.70;;;20.30;50.96
64115;BME280;62188;35.640;139.748;2023-04-07T07:29:50;100661.42;;;20.31;51.11
64115;BME280;62188;35.640;139.748;2023-04-07T07:32:15;100664.01;;;20.58;50.91
64115;BME280;62188;35.640;139.748;2023-04-07T07:34:40;100674.53;;;20.47;50.81
64115;BME280;62188;35.640;139.748;2023-04-07T07:37:06;100660.55;;;20.60;50.98
64115;BME280;62188;35.640;139.748;2023-04-07T07:39:31;100675.46;;;20.37;51.05
64115;BME280;62188;35.640;139.748;2023-04-07T07:41:57;100655.80;;;20.37;51.23
64115;BME280;62188;35.640;139.748;2023-04-07T07:44:22;100661.37;;;20.58;51.00
64115;BME280;62188;35.640;139.748;2023-04-07T07:46:48;100657.71;;;20.46;51.59
64115;BME280;62188;35.640;139.748;2023-04-07T07:49:13;100670.46;;;20.21;51.79
64115;BME280;62188;35.640;139.748;2023-04-07T07:51:39;100647.70;;;20.26;51.91
64115;BME280;62188;35.640;139.748;2023-04-07T07:54:06;100653.01;;;20.44;51.94
64115;BME280;62188;35.640;139.748;2023-04-07T07:56:35;100658.14;;;20.16;52.12
64115;BME280;62188;35.640;139.748;2023-04-07T07:58:55;100655.53;;;20.17;52.32
64115;BME280;62188;35.640;139.748;2023-04-07T08:01:20;100651.00;;;20.29;52.22
64115;BME280;62188;35.640;139.748;2023-04-07T08:03:46;100630.91;;;20.18;52.14
64115;BME280;62188;35.640;139.748;2023-04-07T08:06:11;100637.76;;;20.34;51.83
64115;BME280;62188;35.640;139.748;2023-04-07T08:08:36;100645.59;;;20.65;51.63
64115;BME280;62188;35.640;139.748;2023-04-07T08:11:02;100648.66;;;20.41;51.92
64115;BME280;62188;35.640;139.748;2023-04-07T08:13:27;100649.20;;;20.66;52.11
64115;BME280;62188;35.640;139.748;2023-04-07T08:15:54;100641.70;;;20.42;52.26
64115;BME280;62188;35.640;139.748;2023-04-07T08:18:18;100637.26;;;20.34;52.92
64115;BME280;62188;35.640;139.748;2023-04-07T08:20:44;100635.26;;;20.50;52.94
64115;BME280;62188;35.640;139.748;2023-04-07T08:23:09;100641.22;;;20.13;53.24
64115;BME280;62188;35.640;139.748;2023-04-07T08:25:35;100638.10;;;20.25;52.99
64115;BME280;62188;35.640;139.748;2023-04-07T08:28:01;100624.33;;;20.49;52.80
64115;BME280;62188;35.640;139.748;2023-04-07T08:30:26;100647.51;;;20.35;52.12
64115;BME280;62188;35.640;139.748;2023-04-07T08:32:51;100635.15;;;20.23;52.14
64115;BME280;62188;35.640;139.748;2023-04-07T08:35:16;100655.97;;;19.99;51.80
64115;BME280;62188;35.640;139.748;2023-04-07T08:37:42;100641.48;;;20.08;51.89
64115;BME280;62188;35.640;139.748;2023-04-07T08:40:08;100641.85;;;19.79;52.41
64115;BME280;62188;35.640;139.748;2023-04-07T08:42:34;100628.76;;;20.04;52.23
64115;BME280;62188;35.640;139.748;2023-04-07T08:45:01;100632.99;;;20.48;51.90
64115;BME280;62188;35.640;139.748;2023-04-07T08:47:24;100614.09;;;20.40;51.80
64115;BME280;62188;35.640;139.748;2023-04-07T08:49:52;100609.83;;;20.40;52.25
64115;BME280;62188;35.640;139.748;2023-04-07T08:52:15;100616.63;;;20.26;52.38
64115;BME280;62188;35.640;139.748;2023-04-07T08:54:40;100616.31;;;20.41;52.60
64115;BME280;62188;35.640;139.748;2023-04-07T08:57:07;100599.14;;;19.88;53.14
64115;BME280;62188;35.640;139.748;2023-04-07T08:59:32;100603.62;;;20.03;53.59
64115;BME280;62188;35.640;139.748;2023-04-07T09:01:56;100596.94;;;20.17;54.04
64115;BME280;62188;35.640;139.748;2023-04-07T09:04:22;100608.58;;;20.16;53.81
64115;BME280;62188;35.640;139.748;2023-04-07T09:06:48;100614.43;;;20.35;53.75
64115;BME280;62188;35.640;139.748;2023-04-07T09:09:12;100601.30;;;20.10;53.84
64115;BME280;62188;35.640;139.748;2023-04-07T09:11:39;100611.42;;;20.27;54.12
64115;BME280;62188;35.640;139.748;2023-04-07T09:14:04;100611.56;;;20.40;53.83
64115;BME280;62188;35.640;139.748;2023-04-07T09:16:30;100616.02;;;19.98;54.47
64115;BME280;62188;35.640;139.748;2023-04-07T09:18:55;100606.19;;;19.90;54.79
64115;BME280;62188;35.640;139.748;2023-04-07T09:21:20;100587.46;;;19.91;54.32
64115;BME280;62188;35.640;139.748;2023-04-07T09:23:48;100592.36;;;19.83;54.47
64115;BME280;62188;35.640;139.748;2023-04-07T09:26:22;100588.42;;;19.72;54.59
64115;BME280;62188;35.640;139.748;2023-04-07T09:28:43;100576.07;;;19.82;54.92
64115;BME280;62188;35.640;139.748;2023-04-07T09:31:02;100563.87;;;20.16;54.84
64115;BME280;62188;35.640;139.748;2023-04-07T09:33:28;100574.41;;;19.78;54.93
64115;BME280;62188;35.640;139.748;2023-04-07T09:35:54;100569.58;;;19.75;55.05
64115;BME280;62188;35.640;139.748;2023-04-07T09:38:18;100576.86;;;19.17;55.16
64115;BME280;62188;35.640;139.748;2023-04-07T09:40:44;100574.10;;;19.80;54.48
64115;BME280;62188;35.640;139.748;2023-04-07T09:43:15;100580.11;;;19.47;54.30
64115;BME280;62188;35.640;139.748;2023-04-07T09:45:35;100574.44;;;19.74;53.87
64115;BME280;62188;35.640;139.748;2023-04-07T09:48:05;100574.55;;;19.36;53.31
64115;BME280;62188;35.640;139.748;2023-04-07T09:50:32;100569.16;;;19.40;52.81
64115;BME280;62188;35.640;139.748;2023-04-07T09:52:52;100571.68;;;19.70;52.65
64115;BME280;62188;35.640;139.748;2023-04-07T09:55:18;100580.66;;;19.85;52.33
64115;BME280;62188;35.640;139.748;2023-04-07T09:57:43;100575.68;;;19.65;51.97
64115;BME280;62188;35.640;139.748;2023-04-07T10:00:10;100575.04;;;19.86;51.66
64115;BME280;62188;35.640;139.748;2023-04-07T10:02:33;100561.07;;;19.98;51.58
64115;BME280;62188;35.640;139.748;2023-04-07T10:05:00;100563.27;;;20.08;51.66
64115;BME280;62188;35.640;139.748;2023-04-07T10:07:25;100566.79;;;20.14;51.78
64115;BME280;62188;35.640;139.748;2023-04-07T10:09:50;100572.15;;;20.24;51.63
64115;BME280;62188;35.640;139.748;2023-04-07T10:12:17;100564.45;;;20.03;51.82
64115;BME280;62188;35.640;139.748;2023-04-07T10:14:41;100579.74;;;20.01;51.96
64115;BME280;62188;35.640;139.748;2023-04-07T10:17:06;100575.02;;;19.62;52.11
64115;BME280;62188;35.640;139.748;2023-04-07T10:19:33;100578.39;;;19.85;52.02
64115;BME280;62188;35.640;139.748;2023-04-07T10:21:57;100580.72;;;19.53;52.10
64115;BME280;62188;35.640;139.748;2023-04-07T10:24:34;100577.09;;;19.55;51.82
64115;BME280;62188;35.640;139.748;2023-04-07T10:26:50;100566.14;;;19.48;51.71
64115;BME280;62188;35.640;139.748;2023-04-07T10:29:14;100570.78;;;19.66;52.08
64115;BME280;62188;35.640;139.748;2023-04-07T10:31:39;100565.61;;;19.67;51.78
64115;BME280;62188;35.640;139.748;2023-04-07T10:34:05;100566.58;;;19.79;52.05
64115;BME280;62188;35.640;139.748;2023-04-07T10:36:30;100566.88;;;19.74;52.11
64115;BME280;62188;35.640;139.748;2023-04-07T10:41:32;100562.27;;;19.81;52.14
64115;BME280;62188;35.640;139.748;2023-04-07T10:43:46;100558.43;;;19.47;52.32
64115;BME280;62188;35.640;139.748;2023-04-07T10:46:12;100575.71;;;19.22;52.76
64115;BME280;62188;35.640;139.748;2023-04-07T10:48:37;100562.78;;;19.23;53.28
64115;BME280;62188;35.640;139.748;2023-04-07T10:51:13;100565.93;;;18.97;53.57
64115;BME280;62188;35.640;139.748;2023-04-07T10:53:28;100565.38;;;19.06;53.57
64115;BME280;62188;35.640;139.748;2023-04-07T10:55:55;100549.72;;;19.42;52.79
64115;BME280;62188;35.640;139.748;2023-04-07T10:58:21;100551.42;;;19.42;52.51
64115;BME280;62188;35.640;139.748;2023-04-07T11:03:11;100531.59;;;19.32;52.25
64115;BME280;62188;35.640;139.748;2023-04-07T11:05:35;100513.98;;;19.52;52.05
64115;BME280;62188;35.640;139.748;2023-04-07T11:08:00;100538.59;;;19.43;52.41
64115;BME280;62188;35.640;139.748;2023-04-07T11:10:26;100545.69;;;19.11;52.87
64115;BME280;62188;35.640;139.748;2023-04-07T11:13:03;100539.20;;;19.07;54.17
64115;BME280;62188;35.640;139.748;2023-04-07T11:17:42;100529.74;;;19.87;54.25
64115;BME280;62188;35.640;139.748;2023-04-07T11:20:09;100531.10;;;19.21;54.97
64115;BME280;62188;35.640;139.748;2023-04-07T11:22:33;100531.21;;;19.42;54.71
64115;BME280;62188;35.640;139.748;2023-04-07T11:24:59;100528.74;;;19.58;54.59
64115;BME280;62188;35.640;139.748;2023-04-07T11:27:24;100527.84;;;19.44;55.09
64115;BME280;62188;35.640;139.748;2023-04-07T11:29:50;100533.22;;;19.67;55.11
64115;BME280;62188;35.640;139.748;2023-04-07T11:32:15;100551.07;;;19.63;55.32
64115;BME280;62188;35.640;139.748;2023-04-07T11:34:41;100542.19;;;19.14;56.01
64115;BME280;62188;35.640;139.748;2023-04-07T11:37:19;100543.69;;;19.31;55.75
64115;BME280;62188;35.640;139.748;2023-04-07T11:39:32;100532.18;;;19.19;56.40
64115;BME280;62188;35.640;139.748;2023-04-07T11:41:57;100537.37;;;19.36;56.35
64115;BME280;62188;35.640;139.748;2023-04-07T11:44:23;100533.23;;;19.32;56.25
64115;BME280;62188;35.640;139.748;2023-04-07T11:46:54;100531.96;;;19.15;56.40
64115;BME280;62188;35.640;139.748;2023-04-07T11:49:15;100521.68;;;19.10;56.20
64115;BME280;62188;35.640;139.748;2023-04-07T11:51:42;100515.43;;;18.96;56.26
64115;BME280;62188;35.640;139.748;2023-04-07T11:54:05;100493.57;;;18.91;56.44
64115;BME280;62188;35.640;139.748;2023-04-07T11:56:30;100501.42;;;19.38;55.54
64115;BME280;62188;35.640;139.748;2023-04-07T11:58:56;100482.47;;;19.35;54.93
64115;BME280;62188;35.640;139.748;2023-04-07T12:01:21;100479.33;;;19.56;54.67
64115;BME280;62188;35.640;139.748;2023-04-07T12:03:56;100461.97;;;19.49;54.53
64115;BME280;62188;35.640;139.748;2023-04-07T12:06:19;100464.39;;;19.70;54.27
64115;BME280;62188;35.640;139.748;2023-04-07T12:08:40;100446.29;;;19.92;53.88
64115;BME280;62188;35.640;139.748;2023-04-07T12:11:04;100435.36;;;19.95;53.51
64115;BME280;62188;35.640;139.748;2023-04-07T12:13:28;100444.97;;;19.81;53.76
64115;BME280;62188;35.640;139.748;2023-04-07T12:15:54;100432.36;;;19.98;53.70
64115;BME280;62188;35.640;139.748;2023-04-07T12:18:20;100433.17;;;19.11;54.50
64115;BME280;62188;35.640;139.748;2023-04-07T12:20:46;100436.66;;;19.52;54.60
64115;BME280;62188;35.640;139.748;2023-04-07T12:23:11;100425.88;;;19.53;54.74
64115;BME280;62188;35.640;139.748;2023-04-07T12:25:36;100416.90;;;19.78;54.88
64115;BME280;62188;35.640;139.748;2023-04-07T12:28:01;100427.16;;;19.62;55.17
64115;BME280;62188;35.640;139.748;2023-04-07T12:30:27;100420.71;;;19.79;55.67
64115;BME280;62188;35.640;139.748;2023-04-07T12:32:53;100398.29;;;19.91;55.66